Charlotte Douglas International Airport
KCLT : now visible

Airfield :











YOU CAN JOIN US ON...

 
LOGIN :

Register | Disclaimer

   EN    FR    IT 

 









Legend :    VFR   Marginal VFR   IFR   Intensive IFR   Very Intensive IFR
Visi :
Ceiling :
>= 8 km
>= 3000ft
5 to 8 km
1000 to 3000 ft
1500m to 5 km
500 to 1000 ft
800 to 1500m
200 to 500 ft
< 800m
< 200 ft
Symbols :   Thunderstorms  Fog  Heavy snow  Heavy precipitations  Wind > 20 kt






- Airport Elevation : 748 ft
- IATA code : CLT


KCLT - Charlotte Douglas International

CURRENT METAR :
  • 211752Z 05014G18KT 10SM FEW040 FEW250 20/07 A3043 RMK AO2 SLP301 T02000072 10200 20100 58019 $

EXPIRED METARs :
  • 211652Z 04012KT 10SM FEW040 FEW250 19/06 A3045 RMK AO2 SLP309 T01890061 $
  • 211552Z 03013G18KT 10SM FEW035 FEW250 18/07 A3048 RMK AO2 SLP318 T01830067 $

TAF KCLT
Valid from the 21 at 18:00 until the 23 at 00:00 UTC


211738Z 2118/2224 04012KT P6SM FEW040 FEW250
FM212300 05008KT P6SM FEW250
FM220700 01004KT P6SM FEW250
KZTL FIR / North America



MET'MAP, your aeronautical weather chart ! - Copyright ORBIFLY December 2007 - Disclaimer

ORBIFLY MET'MAP TEAM :

Programming & Development : Alexandra Zaïnal
Concept & original design : Baudouin d'Aumeries
Assistance for programming : Marc-Olivier Méhu
Technical & hardware support : Manuel Goepfert

Contact : metmap@orbifly.com




SOURCES & CREDITS :

   NOAA       Earth
Advisory